Time;durP1;ratioP1;P1;durP2;ratioP2;P2;SDS_P1;SDS_P2;PMS_P1;PMS_P2;Temp;Humidity;BMP_temperature;BMP_pressure;BME280_temperature;BME280_humidity;BME280_pressure;Samples;Min_cycle;Max_cycle;Signal;HPM_P1;HPM_P2
2020/12/16 00:01:59;;;;;;;17.07;12.50;;;8.30;99.90;;;;;;5014925;28;20602;-72
2020/12/16 00:04:26;;;;;;;13.07;11.70;;;8.30;99.90;;;;;;5013788;28;20255;-72
2020/12/16 00:06:51;;;;;;;17.40;13.10;;;8.20;99.90;;;;;;5014515;28;20184;-72
2020/12/16 00:09:17;;;;;;;16.20;12.97;;;8.30;99.90;;;;;;5014803;28;20518;-72
2020/12/16 00:11:43;;;;;;;18.00;15.13;;;8.30;99.90;;;;;;5015156;28;20176;-72
2020/12/16 00:14:08;;;;;;;15.80;12.60;;;8.30;99.90;;;;;;5014813;28;20190;-72
2020/12/16 00:16:34;;;;;;;18.50;12.83;;;8.30;99.90;;;;;;5014908;28;20261;-71
2020/12/16 00:18:59;;;;;;;17.03;12.80;;;8.30;99.90;;;;;;5014325;28;20249;-72
2020/12/16 00:21:25;;;;;;;16.20;12.70;;;8.30;99.90;;;;;;5014223;28;20607;-72
2020/12/16 00:23:50;;;;;;;15.80;12.63;;;8.30;99.90;;;;;;5014427;28;20222;-72
2020/12/16 00:26:16;;;;;;;14.57;13.07;;;8.30;99.90;;;;;;5014644;28;20195;-72
2020/12/16 00:28:42;;;;;;;17.23;13.57;;;8.30;99.90;;;;;;5014184;28;20199;-72
2020/12/16 00:31:08;;;;;;;17.47;14.10;;;8.30;99.90;;;;;;5014272;28;20183;-72
2020/12/16 00:33:34;;;;;;;19.10;14.40;;;8.30;99.90;;;;;;5014269;28;20430;-72
2020/12/16 00:36:00;;;;;;;15.77;13.07;;;8.40;99.90;;;;;;5014386;28;20439;-72
2020/12/16 00:38:26;;;;;;;16.67;13.73;;;8.40;99.90;;;;;;5014286;28;20895;-73
2020/12/16 00:40:51;;;;;;;17.17;12.90;;;8.40;99.90;;;;;;5014694;28;20274;-70
2020/12/16 00:43:17;;;;;;;17.70;13.73;;;8.40;99.90;;;;;;5015160;28;20200;-71
2020/12/16 00:45:42;;;;;;;15.60;13.17;;;8.50;99.90;;;;;;5015486;28;20231;-70
2020/12/16 00:48:08;;;;;;;14.93;13.00;;;8.50;99.90;;;;;;5014529;28;20211;-70
2020/12/16 00:50:33;;;;;;;16.77;12.97;;;8.40;99.90;;;;;;5015259;28;20242;-71
2020/12/16 00:53:00;;;;;;;14.77;13.20;;;8.40;99.90;;;;;;5015150;28;20234;-71
2020/12/16 00:55:25;;;;;;;19.50;14.30;;;8.40;99.90;;;;;;5014344;28;20173;-70
2020/12/16 00:57:51;;;;;;;16.57;13.63;;;8.40;99.90;;;;;;5014158;28;20432;-71
2020/12/16 01:00:18;;;;;;;15.77;13.83;;;8.40;99.90;;;;;;5013890;28;20218;-73
2020/12/16 01:02:44;;;;;;;17.70;14.13;;;8.30;99.90;;;;;;5013504;28;20227;-72
2020/12/16 01:05:11;;;;;;;15.67;14.00;;;8.30;99.90;;;;;;5013533;28;20429;-71
2020/12/16 01:07:40;;;;;;;16.30;12.67;;;8.20;99.90;;;;;;5013850;28;20918;-72
2020/12/16 01:10:08;;;;;;;17.50;14.40;;;8.20;99.90;;;;;;5013339;28;20440;-70
2020/12/16 01:12:41;;;;;;;16.33;13.57;;;8.20;99.90;;;;;;5014257;28;20893;-71
2020/12/16 01:15:13;;;;;;;16.83;13.83;;;8.30;99.90;;;;;;5013973;28;20910;-71
2020/12/16 01:17:40;;;;;;;17.90;14.10;;;8.30;99.90;;;;;;5013612;28;21013;-71
2020/12/16 01:20:07;;;;;;;17.20;13.03;;;8.30;99.90;;;;;;5013412;28;20494;-71
2020/12/16 01:22:40;;;;;;;14.67;12.00;;;8.30;99.90;;;;;;5013783;28;20502;-71
2020/12/16 01:25:06;;;;;;;18.97;13.73;;;8.20;99.90;;;;;;5013783;28;20465;-70
2020/12/16 01:27:32;;;;;;;16.80;13.23;;;8.20;99.90;;;;;;5013176;28;20928;-72
2020/12/16 01:29:58;;;;;;;13.63;11.93;;;8.20;99.90;;;;;;5013558;28;20425;-71
2020/12/16 01:32:23;;;;;;;18.57;12.57;;;8.20;99.90;;;;;;5012319;28;20172;-71
2020/12/16 01:34:49;;;;;;;15.10;12.90;;;8.20;99.90;;;;;;5012323;28;20183;-72
2020/12/16 01:37:14;;;;;;;17.37;13.63;;;8.20;99.90;;;;;;5013054;28;20183;-71
2020/12/16 01:39:40;;;;;;;16.03;14.30;;;8.10;99.90;;;;;;5013157;28;20226;-71
2020/12/16 01:42:05;;;;;;;16.20;13.70;;;8.10;99.90;;;;;;5013455;28;20279;-72
2020/12/16 01:44:31;;;;;;;15.83;13.73;;;8.10;99.90;;;;;;5012907;28;20218;-72
2020/12/16 01:47:00;;;;;;;15.33;13.33;;;8.10;99.90;;;;;;5012963;28;20200;-72
2020/12/16 01:49:26;;;;;;;21.53;14.30;;;8.20;99.90;;;;;;5013217;28;20245;-71
2020/12/16 01:51:57;;;;;;;14.20;12.70;;;8.10;99.90;;;;;;5012987;28;20505;-71
2020/12/16 01:54:24;;;;;;;16.20;13.77;;;8.10;99.90;;;;;;5013175;28;20430;-71
2020/12/16 01:56:57;;;;;;;20.60;14.57;;;8.10;99.90;;;;;;5013263;28;20442;-71
2020/12/16 01:59:23;;;;;;;18.13;14.23;;;8.20;99.90;;;;;;5011466;28;20941;-71
2020/12/16 02:01:54;;;;;;;18.43;14.37;;;8.20;99.90;;;;;;5012970;28;20426;-71
2020/12/16 02:04:24;;;;;;;17.90;14.80;;;8.30;99.90;;;;;;5012686;28;20501;-71
2020/12/16 02:06:51;;;;;;;17.73;14.00;;;8.30;99.90;;;;;;5012638;28;20521;-71
2020/12/16 02:09:19;;;;;;;17.40;13.87;;;8.30;99.90;;;;;;5012828;28;20434;-72
2020/12/16 02:11:44;;;;;;;18.27;13.50;;;8.40;99.90;;;;;;5005365;28;20504;-72
2020/12/16 02:14:10;;;;;;;16.70;13.80;;;8.40;99.90;;;;;;5013110;28;20805;-71
2020/12/16 02:16:37;;;;;;;18.33;13.03;;;8.40;99.90;;;;;;5012824;28;20207;-71
2020/12/16 02:19:05;;;;;;;17.30;13.00;;;8.50;99.90;;;;;;5012790;28;20204;-71
2020/12/16 02:21:30;;;;;;;15.53;13.70;;;8.50;99.90;;;;;;5012703;28;20437;-71
2020/12/16 02:24:10;;;;;;;18.10;13.70;;;8.50;99.90;;;;;;5013332;28;20454;-71
2020/12/16 02:26:37;;;;;;;17.20;13.07;;;8.50;99.90;;;;;;5012891;28;20184;-71
2020/12/16 02:29:05;;;;;;;15.77;12.80;;;8.60;99.90;;;;;;5012580;28;20474;-71
2020/12/16 02:31:35;;;;;;;15.83;12.40;;;8.60;99.90;;;;;;5012620;28;20752;-71
2020/12/16 02:34:01;;;;;;;16.53;13.53;;;8.60;99.90;;;;;;5012336;28;20434;-71
2020/12/16 02:36:26;;;;;;;16.57;12.67;;;8.70;99.90;;;;;;5012839;28;20984;-71
2020/12/16 02:38:54;;;;;;;15.13;13.53;;;8.60;99.90;;;;;;5012394;28;20527;-71
2020/12/16 02:41:22;;;;;;;17.63;14.07;;;8.70;99.90;;;;;;5013080;28;20652;-71
2020/12/16 02:43:48;;;;;;;17.43;13.27;;;8.70;99.90;;;;;;5015112;28;20454;-71
2020/12/16 02:46:14;;;;;;;16.07;12.83;;;8.70;99.90;;;;;;5016533;28;20429;-71
2020/12/16 02:48:40;;;;;;;14.63;12.07;;;8.60;99.90;;;;;;5016083;28;20971;-73
2020/12/16 02:51:06;;;;;;;15.67;12.63;;;8.60;99.90;;;;;;5016517;28;20417;-71
2020/12/16 02:53:31;;;;;;;17.13;13.30;;;8.60;99.90;;;;;;5016731;28;20176;-70
2020/12/16 02:55:57;;;;;;;15.30;12.83;;;8.60;99.90;;;;;;5016556;28;20549;-71
2020/12/16 02:58:23;;;;;;;15.60;12.70;;;8.60;99.90;;;;;;5015889;28;20205;-71
2020/12/16 03:00:50;;;;;;;15.80;13.13;;;8.60;99.90;;;;;;5014817;28;20284;-71
2020/12/16 03:03:15;;;;;;;18.73;13.97;;;8.60;99.90;;;;;;5015927;28;20485;-71
2020/12/16 03:05:41;;;;;;;15.73;13.03;;;8.70;99.90;;;;;;5016144;28;20411;-71
2020/12/16 03:08:09;;;;;;;16.83;13.03;;;8.70;99.90;;;;;;5016214;28;20238;-71
2020/12/16 03:10:35;;;;;;;18.10;13.53;;;8.70;99.90;;;;;;5016103;28;20271;-71
2020/12/16 03:13:01;;;;;;;16.93;13.97;;;8.70;99.90;;;;;;5015060;28;20462;-70
2020/12/16 03:15:26;;;;;;;15.20;11.90;;;8.60;99.90;;;;;;5015830;28;20175;-71
2020/12/16 03:17:52;;;;;;;19.70;13.63;;;8.60;99.90;;;;;;5015397;28;20430;-71
2020/12/16 03:20:17;;;;;;;17.00;13.53;;;8.60;99.90;;;;;;5017088;28;20199;-70
2020/12/16 03:22:43;;;;;;;18.00;13.80;;;8.60;99.90;;;;;;5015556;28;20179;-70
2020/12/16 03:25:09;;;;;;;17.67;13.23;;;8.50;99.90;;;;;;5015541;28;20259;-70
2020/12/16 03:27:34;;;;;;;16.70;13.50;;;8.50;99.90;;;;;;5015411;28;20535;-70
2020/12/16 03:30:00;;;;;;;15.17;12.37;;;8.40;99.90;;;;;;5015574;28;20270;-71
2020/12/16 03:32:25;;;;;;;16.03;12.53;;;8.40;99.90;;;;;;5015519;28;20177;-71
2020/12/16 03:34:51;;;;;;;14.80;11.77;;;8.40;99.90;;;;;;5015389;28;20180;-71
2020/12/16 03:37:16;;;;;;;15.47;12.10;;;8.30;99.90;;;;;;5013715;28;20225;-71
2020/12/16 03:39:42;;;;;;;14.93;13.10;;;8.30;99.90;;;;;;5015461;28;20250;-71
2020/12/16 03:42:07;;;;;;;15.30;13.20;;;8.30;99.90;;;;;;5015729;28;20179;-71
2020/12/16 03:44:33;;;;;;;15.20;12.80;;;8.20;99.90;;;;;;5015530;28;20192;-71
2020/12/16 03:46:59;;;;;;;17.33;13.33;;;8.20;99.90;;;;;;5014778;28;20204;-71
2020/12/16 03:49:24;;;;;;;16.20;13.47;;;8.10;99.90;;;;;;5015026;28;20199;-71
2020/12/16 03:51:58;;;;;;;16.70;13.87;;;8.10;99.90;;;;;;5015335;28;20329;-71
2020/12/16 03:54:24;;;;;;;18.10;13.73;;;8.10;99.90;;;;;;5014689;28;20251;-71
2020/12/16 03:56:50;;;;;;;16.87;13.93;;;8.10;99.90;;;;;;5014896;28;20833;-71
2020/12/16 03:59:15;;;;;;;15.57;12.53;;;8.00;99.90;;;;;;5014899;28;20546;-71
2020/12/16 04:01:41;;;;;;;16.80;14.23;;;8.00;99.90;;;;;;5015464;28;20654;-71
2020/12/16 04:04:07;;;;;;;18.90;14.70;;;7.90;99.90;;;;;;5014574;28;20273;-71
2020/12/16 04:06:33;;;;;;;17.33;13.03;;;7.90;99.90;;;;;;5014995;28;20414;-71
2020/12/16 04:08:59;;;;;;;15.33;13.23;;;7.80;99.90;;;;;;5014421;28;20477;-71
2020/12/16 04:11:24;;;;;;;26.03;14.90;;;7.80;99.90;;;;;;5014997;28;20260;-71
2020/12/16 04:13:50;;;;;;;21.20;12.90;;;7.70;99.90;;;;;;5015263;28;20174;-71
2020/12/16 04:16:18;;;;;;;19.57;13.33;;;7.60;99.90;;;;;;5014651;28;20183;-71
2020/12/16 04:18:44;;;;;;;17.17;12.87;;;7.60;99.90;;;;;;5013301;28;20211;-71
2020/12/16 04:21:10;;;;;;;19.47;13.70;;;7.60;99.90;;;;;;5016359;28;20414;-71
2020/12/16 04:23:36;;;;;;;18.70;14.60;;;7.70;99.90;;;;;;5014733;28;20961;-72
2020/12/16 04:26:02;;;;;;;21.30;13.80;;;7.80;99.90;;;;;;5014677;28;20179;-72
2020/12/16 04:28:28;;;;;;;17.63;13.83;;;7.80;99.90;;;;;;5013163;28;20442;-72
2020/12/16 04:30:54;;;;;;;18.70;12.83;;;7.90;99.90;;;;;;5014465;28;20921;-71
2020/12/16 04:33:19;;;;;;;22.17;14.63;;;7.90;99.90;;;;;;5013945;28;20338;-71
2020/12/16 04:35:46;;;;;;;21.10;13.77;;;8.00;99.90;;;;;;5012965;28;20637;-72
2020/12/16 04:38:11;;;;;;;24.30;15.23;;;8.00;99.90;;;;;;5013500;28;20323;-72
2020/12/16 04:40:37;;;;;;;19.17;14.20;;;8.00;99.90;;;;;;5012972;28;20500;-71
2020/12/16 04:43:07;;;;;;;20.80;15.00;;;8.00;99.90;;;;;;5014197;28;20196;-71
2020/12/16 04:45:39;;;;;;;22.40;15.17;;;8.00;99.90;;;;;;5013935;28;20438;-70
2020/12/16 04:48:09;;;;;;;20.87;15.63;;;8.00;99.90;;;;;;5014095;28;20514;-71
2020/12/16 04:50:35;;;;;;;20.47;14.23;;;7.90;99.90;;;;;;5014442;28;20431;-71
2020/12/16 04:53:15;;;;;;;20.43;13.40;;;7.90;99.90;;;;;;5013801;28;20433;-73
2020/12/16 04:55:42;;;;;;;20.63;14.17;;;7.90;99.90;;;;;;5014217;28;20414;-71
2020/12/16 04:58:08;;;;;;;19.37;14.50;;;8.00;99.90;;;;;;5014070;28;20422;-72
2020/12/16 05:00:35;;;;;;;18.23;12.57;;;7.90;99.90;;;;;;5013808;28;20438;-72
2020/12/16 05:03:09;;;;;;;18.77;13.80;;;7.90;99.90;;;;;;5014169;28;20506;-72
2020/12/16 05:05:36;;;;;;;20.60;15.20;;;7.80;99.90;;;;;;5013631;28;20534;-71
2020/12/16 05:08:12;;;;;;;19.23;13.63;;;7.80;99.90;;;;;;5012915;28;20426;-71
2020/12/16 05:10:40;;;;;;;20.40;13.90;;;7.70;99.90;;;;;;5013738;28;20476;-72
2020/12/16 05:13:07;;;;;;;20.00;13.80;;;7.70;99.90;;;;;;5013565;28;20446;-72
2020/12/16 05:15:33;;;;;;;20.77;14.13;;;7.70;99.90;;;;;;5013846;28;20501;-72
2020/12/16 05:18:16;;;;;;;16.47;13.00;;;7.70;99.90;;;;;;5012418;28;20470;-72
2020/12/16 05:20:53;;;;;;;19.27;12.80;;;7.60;99.90;;;;;;5012532;28;20181;-72
2020/12/16 05:23:30;;;;;;;18.30;13.07;;;7.60;99.90;;;;;;5013752;28;20465;-72
2020/12/16 05:26:01;;;;;;;20.30;14.37;;;7.50;99.90;;;;;;5013886;28;20422;-72
2020/12/16 05:28:36;;;;;;;18.73;13.53;;;7.50;99.90;;;;;;5013127;28;20750;-72
2020/12/16 05:31:04;;;;;;;18.47;13.30;;;7.40;99.90;;;;;;5013546;28;20421;-72
2020/12/16 05:33:30;;;;;;;20.20;13.70;;;7.40;99.90;;;;;;5013375;28;20438;-72
2020/12/16 05:35:56;;;;;;;21.77;13.23;;;7.40;99.90;;;;;;5013618;28;20921;-72
2020/12/16 05:38:23;;;;;;;23.63;14.30;;;7.30;99.90;;;;;;5013073;28;20418;-72
2020/12/16 05:40:49;;;;;;;22.30;15.60;;;7.30;99.90;;;;;;5013198;28;20993;-72
2020/12/16 05:43:26;;;;;;;20.07;15.20;;;7.40;99.90;;;;;;5013432;28;20583;-72
2020/12/16 05:45:52;;;;;;;19.87;13.60;;;7.40;99.90;;;;;;5012936;28;20183;-72
2020/12/16 05:48:18;;;;;;;23.70;15.33;;;7.40;99.90;;;;;;5013151;28;20452;-72
2020/12/16 05:50:50;;;;;;;20.90;15.30;;;7.30;99.90;;;;;;5013206;28;20458;-72
2020/12/16 05:53:18;;;;;;;23.80;15.50;;;7.30;99.90;;;;;;5013007;28;20225;-72
2020/12/16 05:55:49;;;;;;;19.20;13.70;;;7.30;99.90;;;;;;5012661;28;20431;-72
2020/12/16 05:58:16;;;;;;;21.00;13.90;;;7.30;99.90;;;;;;5012747;28;20924;-72
2020/12/16 06:01:09;;;;;;;19.40;14.60;;;7.30;99.90;;;;;;5012866;28;20450;-72
2020/12/16 06:03:37;;;;;;;20.63;14.10;;;7.30;99.90;;;;;;5011051;28;20461;-72
2020/12/16 06:06:04;;;;;;;22.10;14.40;;;7.30;99.90;;;;;;5012652;28;20429;-72
2020/12/16 06:08:38;;;;;;;21.50;15.23;;;7.30;99.90;;;;;;5012800;28;20414;-73
2020/12/16 06:11:05;;;;;;;21.17;14.33;;;7.30;99.90;;;;;;5012699;28;20444;-72
2020/12/16 06:13:31;;;;;;;20.73;13.97;;;7.20;99.90;;;;;;5012899;28;20430;-72
2020/12/16 06:16:04;;;;;;;18.20;13.00;;;7.20;99.90;;;;;;5012722;28;20932;-72
2020/12/16 06:18:38;;;;;;;18.20;12.17;;;7.20;99.90;;;;;;5014516;28;20501;-72
2020/12/16 06:21:06;;;;;;;18.87;12.90;;;7.20;99.90;;;;;;5016746;28;20418;-71
2020/12/16 06:23:42;;;;;;;18.37;13.33;;;7.20;99.90;;;;;;5016379;28;20454;-71
2020/12/16 06:26:10;;;;;;;17.57;13.67;;;7.30;99.90;;;;;;5016487;28;20772;-72
2020/12/16 06:28:35;;;;;;;20.43;14.00;;;7.30;99.90;;;;;;5015995;28;20454;-72
2020/12/16 06:31:09;;;;;;;18.40;13.80;;;7.30;99.90;;;;;;5016253;28;20418;-72
2020/12/16 06:33:41;;;;;;;18.30;13.60;;;7.30;99.90;;;;;;5016811;28;20198;-72
2020/12/16 06:36:09;;;;;;;18.50;12.83;;;7.30;99.90;;;;;;5017147;28;20419;-72
2020/12/16 06:38:44;;;;;;;18.97;12.67;;;7.40;99.90;;;;;;5010440;28;20458;-72
2020/12/16 06:41:12;;;;;;;19.47;14.30;;;7.40;99.90;;;;;;5002287;28;20422;-72
2020/12/16 06:43:40;;;;;;;20.17;14.67;;;7.40;99.90;;;;;;5011133;28;20465;-72
2020/12/16 06:46:32;;;;;;;19.90;13.63;;;7.50;99.90;;;;;;5018263;28;20497;-73
2020/12/16 06:49:09;;;;;;;20.63;13.50;;;7.60;99.90;;;;;;5003914;28;20460;-72
2020/12/16 06:51:44;;;;;;;23.23;15.87;;;7.60;99.90;;;;;;4995765;28;20957;-72
2020/12/16 06:54:12;;;;;;;20.87;13.67;;;7.70;99.90;;;;;;4998424;28;20427;-72
2020/12/16 06:56:40;;;;;;;20.37;15.10;;;7.80;99.90;;;;;;4996106;28;20473;-71
2020/12/16 06:59:06;;;;;;;19.10;13.57;;;7.80;99.90;;;;;;4995415;28;20447;-71
2020/12/16 07:01:32;;;;;;;18.10;13.00;;;7.80;99.90;;;;;;4991513;28;20430;-71
2020/12/16 07:03:58;;;;;;;18.40;14.23;;;7.90;99.90;;;;;;4997895;28;20534;-72
2020/12/16 07:06:30;;;;;;;21.57;14.47;;;7.90;99.90;;;;;;4994074;28;20423;-72
2020/12/16 07:09:20;;;;;;;18.63;14.53;;;7.80;99.90;;;;;;5001842;28;20450;-72
2020/12/16 07:11:50;;;;;;;19.70;14.60;;;7.90;99.90;;;;;;5005524;28;20459;-72
2020/12/16 07:14:19;;;;;;;19.00;14.60;;;7.90;99.90;;;;;;4990132;28;20984;-72
2020/12/16 07:16:45;;;;;;;22.77;15.07;;;7.90;99.90;;;;;;5003437;28;20457;-72
2020/12/16 07:19:13;;;;;;;16.80;13.33;;;8.00;99.90;;;;;;4998282;28;21051;-72
2020/12/16 07:21:40;;;;;;;18.80;13.07;;;8.00;99.90;;;;;;4994906;28;20421;-72
2020/12/16 07:24:15;;;;;;;18.17;13.93;;;8.00;99.90;;;;;;5004971;28;20459;-72
2020/12/16 07:26:53;;;;;;;16.40;13.20;;;8.10;99.90;;;;;;5015022;28;20426;-72
2020/12/16 07:29:32;;;;;;;17.93;13.13;;;8.10;99.90;;;;;;5013845;28;20445;-72
2020/12/16 07:32:02;;;;;;;17.23;13.10;;;8.10;99.90;;;;;;5009791;28;20447;-71
2020/12/16 07:34:29;;;;;;;21.13;14.30;;;8.10;99.90;;;;;;5020172;28;20474;-70
2020/12/16 07:37:00;;;;;;;17.63;13.77;;;8.20;99.90;;;;;;5013013;28;20435;-71
2020/12/16 07:39:26;;;;;;;19.77;14.30;;;8.10;99.90;;;;;;5008057;28;20471;-70
2020/12/16 07:41:53;;;;;;;18.87;13.90;;;8.10;99.90;;;;;;5014531;28;20426;-71
2020/12/16 07:44:19;;;;;;;20.20;14.30;;;8.20;99.90;;;;;;5008933;28;20456;-71
2020/12/16 07:46:44;;;;;;;20.03;14.27;;;8.10;99.90;;;;;;5008751;28;20443;-71
2020/12/16 07:49:12;;;;;;;20.03;14.60;;;8.10;99.90;;;;;;5011662;28;20310;-70
2020/12/16 07:51:38;;;;;;;18.13;13.37;;;8.10;99.90;;;;;;5014077;28;20568;-71
2020/12/16 07:54:04;;;;;;;17.80;14.27;;;8.10;99.90;;;;;;5014676;28;20468;-71
2020/12/16 07:56:29;;;;;;;22.17;14.30;;;8.00;99.90;;;;;;5004949;28;20787;-72
2020/12/16 07:58:55;;;;;;;20.20;14.23;;;8.00;99.90;;;;;;5012953;28;20434;-72
2020/12/16 08:01:21;;;;;;;17.93;13.27;;;8.00;99.90;;;;;;5006310;28;20191;-71
2020/12/16 08:03:47;;;;;;;19.03;14.53;;;7.90;99.90;;;;;;5013003;28;20622;-72
2020/12/16 08:06:13;;;;;;;18.03;13.77;;;7.90;99.90;;;;;;5013922;28;20179;-71
2020/12/16 08:08:46;;;;;;;23.53;15.70;;;7.90;99.90;;;;;;5014153;28;20435;-72
2020/12/16 08:11:25;;;;;;;18.33;13.53;;;7.80;99.90;;;;;;5014275;28;20502;-72
2020/12/16 08:13:51;;;;;;;20.60;15.27;;;7.80;99.90;;;;;;5007472;28;20426;-72
2020/12/16 08:16:17;;;;;;;21.07;13.13;;;7.90;99.90;;;;;;5014110;28;20422;-72
2020/12/16 08:18:47;;;;;;;16.83;12.53;;;7.90;99.90;;;;;;4999300;28;20566;-71
2020/12/16 08:21:21;;;;;;;16.20;12.03;;;7.80;99.90;;;;;;5007935;28;20423;-72
2020/12/16 08:23:48;;;;;;;19.13;13.03;;;7.90;99.90;;;;;;5006798;28;20454;-71
2020/12/16 08:26:15;;;;;;;15.73;11.30;;;7.90;99.90;;;;;;5011651;28;20489;-72
2020/12/16 08:28:41;;;;;;;13.40;10.17;;;7.90;99.90;;;;;;5006335;28;20443;-71
2020/12/16 08:31:07;;;;;;;9.43;8.20;;;7.90;99.90;;;;;;5002134;28;20466;-71
2020/12/16 08:33:33;;;;;;;11.70;10.00;;;7.90;99.90;;;;;;5005474;28;20236;-72
2020/12/16 08:36:04;;;;;;;12.77;9.17;;;8.00;99.90;;;;;;5012331;28;20506;-72
2020/12/16 08:38:32;;;;;;;11.37;9.40;;;8.00;99.90;;;;;;4980436;28;20484;-71
2020/12/16 08:40:59;;;;;;;8.77;7.60;;;8.10;99.90;;;;;;5009548;28;20426;-71
2020/12/16 08:43:35;;;;;;;10.00;7.83;;;8.10;99.90;;;;;;4998974;28;20462;-70
2020/12/16 08:46:09;;;;;;;9.60;7.90;;;8.20;99.90;;;;;;5010289;28;20422;-73
2020/12/16 08:48:45;;;;;;;8.70;6.90;;;8.20;99.90;;;;;;5013613;28;20449;-72
2020/12/16 08:51:17;;;;;;;7.30;6.60;;;8.30;99.90;;;;;;5013220;28;20435;-72
2020/12/16 08:53:56;;;;;;;7.20;5.87;;;8.30;99.90;;;;;;5011055;28;20470;-71
2020/12/16 08:56:42;;;;;;;8.13;6.80;;;8.40;99.90;;;;;;5013107;28;20422;-72
2020/12/16 08:59:16;;;;;;;9.70;8.40;;;8.40;99.90;;;;;;5007597;28;20900;-71
2020/12/16 09:01:54;;;;;;;9.30;7.43;;;8.50;99.90;;;;;;5013860;28;20880;-71
2020/12/16 09:04:28;;;;;;;9.10;8.20;;;8.50;99.90;;;;;;5013516;28;20462;-71
2020/12/16 09:07:07;;;;;;;8.73;7.80;;;8.50;99.90;;;;;;5013737;28;20428;-72
2020/12/16 09:09:34;;;;;;;8.90;7.13;;;8.60;99.90;;;;;;5012948;28;20439;-71
2020/12/16 09:12:01;;;;;;;7.97;7.17;;;8.60;99.90;;;;;;5020658;28;20423;-71
2020/12/16 09:14:27;;;;;;;10.17;7.47;;;8.70;99.90;;;;;;5019024;28;20422;-72
2020/12/16 09:16:53;;;;;;;9.70;7.97;;;8.70;99.90;;;;;;5019287;28;21735;-72
2020/12/16 09:19:24;;;;;;;8.93;6.60;;;8.80;99.90;;;;;;5013909;28;20195;-72
2020/12/16 09:21:51;;;;;;;9.03;7.27;;;8.80;99.90;;;;;;5013149;28;20207;-71
2020/12/16 09:24:21;;;;;;;7.80;7.00;;;8.80;99.90;;;;;;5012226;28;20458;-70
2020/12/16 09:26:48;;;;;;;8.63;7.50;;;8.90;99.90;;;;;;5011831;28;20537;-70
2020/12/16 09:29:28;;;;;;;7.60;6.77;;;8.90;99.90;;;;;;5010347;28;20442;-70
2020/12/16 09:32:16;;;;;;;7.50;6.83;;;8.90;99.90;;;;;;5010389;28;20612;-71
2020/12/16 09:34:46;;;;;;;8.20;6.50;;;9.00;99.90;;;;;;5010881;28;20561;-71
2020/12/16 09:37:20;;;;;;;7.43;6.60;;;9.00;99.90;;;;;;5004482;28;20524;-70
2020/12/16 09:39:48;;;;;;;8.07;6.50;;;9.10;99.90;;;;;;5010629;28;20808;-71
2020/12/16 09:42:18;;;;;;;7.50;6.40;;;9.10;99.90;;;;;;5012265;28;20426;-71
2020/12/16 09:44:45;;;;;;;8.03;7.23;;;9.20;99.90;;;;;;5012549;28;20789;-71
2020/12/16 09:47:19;;;;;;;8.37;6.93;;;9.20;99.90;;;;;;5012691;28;20473;-72
2020/12/16 09:49:56;;;;;;;7.37;6.67;;;9.30;99.90;;;;;;5012958;28;20430;-71
2020/12/16 09:52:32;;;;;;;11.60;7.57;;;9.30;99.90;;;;;;5012494;28;20520;-71
2020/12/16 09:55:10;;;;;;;7.70;6.90;;;9.40;99.90;;;;;;5012424;28;21088;-71
2020/12/16 09:57:36;;;;;;;7.30;5.93;;;9.50;99.90;;;;;;5013044;28;20424;-71
2020/12/16 10:00:03;;;;;;;7.20;6.60;;;9.60;99.90;;;;;;5013000;28;20505;-70
2020/12/16 10:02:28;;;;;;;7.30;6.60;;;9.60;99.90;;;;;;5012769;28;20280;-70
2020/12/16 10:04:53;;;;;;;7.60;6.63;;;9.70;99.90;;;;;;5011202;28;20551;-72
2020/12/16 10:07:19;;;;;;;7.60;6.90;;;9.70;99.90;;;;;;5011463;28;20435;-70
2020/12/16 10:09:52;;;;;;;8.70;6.90;;;9.80;99.90;;;;;;5014021;28;20194;-71
2020/12/16 10:12:18;;;;;;;6.73;6.13;;;9.80;99.90;;;;;;5012906;28;20927;-71
2020/12/16 10:14:44;;;;;;;7.50;5.90;;;9.90;99.90;;;;;;5014942;28;20427;-71
2020/12/16 10:17:09;;;;;;;7.40;6.10;;;9.90;99.90;;;;;;5013615;28;20473;-72
2020/12/16 10:19:35;;;;;;;7.10;6.40;;;10.00;99.90;;;;;;5013821;28;20199;-70
2020/12/16 10:22:00;;;;;;;8.27;6.30;;;10.00;99.90;;;;;;5013604;28;20193;-71
2020/12/16 10:24:26;;;;;;;6.50;5.70;;;10.00;99.90;;;;;;5012338;28;20676;-71
2020/12/16 10:26:51;;;;;;;6.53;5.93;;;10.00;99.90;;;;;;5013188;28;20214;-73
2020/12/16 10:29:17;;;;;;;6.67;6.00;;;9.90;99.90;;;;;;5011597;28;20214;-71
2020/12/16 10:31:49;;;;;;;6.43;5.50;;;9.90;99.90;;;;;;5012007;28;20172;-71
2020/12/16 10:34:17;;;;;;;6.83;6.00;;;9.90;99.90;;;;;;5011784;28;20221;-71
2020/12/16 10:36:43;;;;;;;6.40;5.80;;;9.90;99.90;;;;;;5012425;28;20456;-71
2020/12/16 10:39:09;;;;;;;7.30;6.23;;;10.00;99.90;;;;;;5013436;28;20460;-72
2020/12/16 10:41:35;;;;;;;5.87;5.37;;;10.10;99.90;;;;;;5012074;28;20429;-72
2020/12/16 10:44:01;;;;;;;9.77;6.07;;;10.10;99.90;;;;;;5011902;28;20207;-71
2020/12/16 10:46:27;;;;;;;6.83;6.10;;;10.20;99.90;;;;;;5011738;28;20840;-71
2020/12/16 10:48:52;;;;;;;5.93;5.40;;;10.30;99.90;;;;;;5011833;28;20453;-71
2020/12/16 10:51:18;;;;;;;6.37;5.70;;;10.40;99.90;;;;;;5012215;28;20653;-71
2020/12/16 10:53:43;;;;;;;6.57;5.90;;;10.40;99.90;;;;;;5011670;28;20229;-71
2020/12/16 10:56:09;;;;;;;6.67;5.67;;;10.40;99.90;;;;;;5012065;28;20281;-70
2020/12/16 10:58:34;;;;;;;5.90;5.30;;;10.40;99.90;;;;;;5012368;28;20208;-71
2020/12/16 11:01:00;;;;;;;5.93;5.33;;;10.40;99.90;;;;;;5010646;28;20665;-72
2020/12/16 11:03:25;;;;;;;6.07;5.47;;;10.50;99.90;;;;;;5012136;28;20720;-72
2020/12/16 11:05:51;;;;;;;6.00;5.40;;;10.60;99.90;;;;;;5015120;28;20643;-72
2020/12/16 11:08:17;;;;;;;5.57;5.07;;;10.50;99.90;;;;;;5014742;28;20282;-71
2020/12/16 11:10:49;;;;;;;5.83;5.20;;;10.50;99.90;;;;;;5015964;28;20171;-70
2020/12/16 11:13:15;;;;;;;8.03;6.00;;;10.60;99.90;;;;;;5017109;28;20175;-71
2020/12/16 11:15:40;;;;;;;6.60;5.90;;;10.60;99.90;;;;;;5016819;28;20516;-70
2020/12/16 11:18:06;;;;;;;6.83;5.60;;;10.70;99.90;;;;;;5015278;28;20179;-71
2020/12/16 11:20:31;;;;;;;7.30;6.60;;;10.70;99.90;;;;;;5015551;28;20325;-71
2020/12/16 11:22:57;;;;;;;6.27;5.57;;;10.80;99.90;;;;;;5014897;28;20180;-71
2020/12/16 11:25:22;;;;;;;6.33;5.70;;;10.80;99.90;;;;;;5014786;28;20207;-71
2020/12/16 11:27:48;;;;;;;6.40;5.80;;;10.80;99.90;;;;;;5014741;28;20184;-71
2020/12/16 11:30:13;;;;;;;6.47;5.30;;;10.90;99.90;;;;;;5014364;28;20250;-71
2020/12/16 11:32:39;;;;;;;5.97;5.37;;;10.90;99.90;;;;;;5014837;28;20325;-71
2020/12/16 11:35:04;;;;;;;5.43;4.80;;;10.90;99.90;;;;;;5015051;28;20229;-72
2020/12/16 11:37:30;;;;;;;5.90;5.40;;;10.90;99.90;;;;;;5014748;28;20175;-72
2020/12/16 11:39:58;;;;;;;7.40;5.77;;;10.90;99.90;;;;;;5014668;28;20670;-71
2020/12/16 11:42:24;;;;;;;5.60;5.20;;;10.90;99.90;;;;;;5013991;28;20189;-71
2020/12/16 11:44:52;;;;;;;5.70;5.20;;;10.90;99.90;;;;;;5014743;28;20462;-71
2020/12/16 11:47:17;;;;;;;6.20;5.60;;;10.90;99.90;;;;;;5015119;28;20438;-71
2020/12/16 11:49:43;;;;;;;6.73;6.07;;;10.90;99.90;;;;;;5014424;28;20779;-71
2020/12/16 11:52:08;;;;;;;6.07;5.50;;;10.80;99.90;;;;;;5014389;28;20230;-71
2020/12/16 11:54:34;;;;;;;6.20;5.60;;;10.80;99.90;;;;;;5014105;28;20662;-71
2020/12/16 11:57:00;;;;;;;5.30;4.80;;;10.80;99.90;;;;;;5014273;28;20168;-71
2020/12/16 11:59:26;;;;;;;5.63;5.13;;;10.80;99.90;;;;;;5014257;28;20848;-71
2020/12/16 12:01:56;;;;;;;5.77;5.17;;;10.80;99.90;;;;;;5015927;28;20175;-71
2020/12/16 12:04:22;;;;;;;5.97;5.37;;;10.80;99.90;;;;;;5017467;28;20505;-71
2020/12/16 12:06:48;;;;;;;6.07;5.50;;;10.80;99.90;;;;;;5015240;28;20434;-71
2020/12/16 12:09:14;;;;;;;5.97;5.47;;;10.90;99.90;;;;;;5015072;28;20449;-72
2020/12/16 12:11:39;;;;;;;7.20;5.60;;;11.00;99.90;;;;;;5014677;28;20191;-71
2020/12/16 12:14:05;;;;;;;4.90;4.50;;;11.00;99.90;;;;;;5014764;28;20531;-71
2020/12/16 12:16:30;;;;;;;5.03;4.63;;;11.00;99.90;;;;;;5016791;28;20254;-72
2020/12/16 12:18:56;;;;;;;4.77;4.37;;;11.10;99.90;;;;;;5008084;28;20282;-71
2020/12/16 12:21:21;;;;;;;5.30;4.80;;;11.10;99.90;;;;;;5015987;28;20183;-70
2020/12/16 12:23:47;;;;;;;5.07;4.67;;;11.10;99.90;;;;;;5015384;28;20209;-71
2020/12/16 12:26:13;;;;;;;5.93;5.43;;;11.20;99.90;;;;;;5018877;28;20257;-71
2020/12/16 12:28:38;;;;;;;7.00;6.07;;;11.20;99.90;;;;;;5015360;28;20195;-71
2020/12/16 12:31:04;;;;;;;5.27;4.83;;;11.30;99.90;;;;;;5014410;28;20183;-72
2020/12/16 12:33:29;;;;;;;7.33;5.27;;;11.30;99.90;;;;;;5014176;28;20661;-71
2020/12/16 12:35:55;;;;;;;4.70;4.33;;;11.30;99.90;;;;;;5013860;28;20262;-71
2020/12/16 12:38:20;;;;;;;5.77;5.37;;;11.40;99.90;;;;;;5013184;28;20179;-71
2020/12/16 12:40:46;;;;;;;5.70;5.27;;;11.40;99.90;;;;;;5013475;28;20191;-71
2020/12/16 12:43:12;;;;;;;6.00;4.17;;;11.30;99.90;;;;;;5013633;28;20229;-70
2020/12/16 12:45:38;;;;;;;5.57;5.13;;;11.30;99.90;;;;;;5014021;28;20730;-71